Time;durP1;ratioP1;P1;durP2;ratioP2;P2;SDS_P1;SDS_P2;PMS_P1;PMS_P2;Temp;Humidity;BMP_temperature;BMP_pressure;BME280_temperature;BME280_humidity;BME280_pressure;Samples;Min_cycle;Max_cycle;Signal;HPM_P1;HPM_P2
2022/07/22 00:00:19;;;;;;;23.30;9.30;;;;;;;13.94;100.00;102073.34;5133587;27;20027;-41
2022/07/22 00:02:44;;;;;;;21.73;8.80;;;;;;;13.99;100.00;102077.00;5134100;27;20050;-42
2022/07/22 00:05:10;;;;;;;25.08;9.27;;;;;;;14.00;100.00;102076.16;5133029;27;20039;-41
2022/07/22 00:07:37;;;;;;;21.77;9.38;;;;;;;13.98;100.00;102072.63;5133643;27;20410;-41
2022/07/22 00:10:04;;;;;;;20.60;9.77;;;;;;;14.06;100.00;102076.38;5133577;27;20023;-41
2022/07/22 00:12:29;;;;;;;24.90;9.55;;;;;;;14.08;100.00;102077.31;5132897;27;20047;-41
2022/07/22 00:14:55;;;;;;;25.63;10.10;;;;;;;14.09;100.00;102068.72;5133625;28;20400;-40
2022/07/22 00:17:20;;;;;;;27.85;10.52;;;;;;;14.11;100.00;102072.25;5138678;27;20032;-43
2022/07/22 00:19:45;;;;;;;24.27;10.48;;;;;;;14.09;100.00;102066.13;5140033;27;20035;-40
2022/07/22 00:22:11;;;;;;;27.05;9.65;;;;;;;14.09;100.00;102066.13;5140482;27;20019;-41
2022/07/22 00:24:36;;;;;;;24.77;10.13;;;;;;;14.10;100.00;102062.69;5140257;27;20019;-43
2022/07/22 00:27:01;;;;;;;26.27;11.05;;;;;;;14.12;100.00;102062.75;5139918;27;20026;-41
2022/07/22 00:29:27;;;;;;;27.83;10.60;;;;;;;14.12;100.00;102061.03;5140186;27;20419;-40
2022/07/22 00:31:52;;;;;;;26.15;10.50;;;;;;;14.18;100.00;102064.66;5140502;27;20116;-41
2022/07/22 00:34:17;;;;;;;26.08;10.20;;;;;;;14.19;100.00;102062.13;5139830;27;20023;-41
2022/07/22 00:36:42;;;;;;;27.70;10.10;;;;;;;14.23;100.00;102060.50;5140540;27;20019;-41
2022/07/22 00:39:10;;;;;;;26.10;11.05;;;;;;;14.28;100.00;102062.44;5139674;27;20106;-44
2022/07/22 00:41:36;;;;;;;27.80;11.05;;;;;;;14.23;100.00;102058.81;5140255;27;20027;-43
2022/07/22 00:44:04;;;;;;;29.80;11.27;;;;;;;14.24;100.00;102059.69;5140222;27;20584;-42
2022/07/22 00:46:30;;;;;;;25.90;10.68;;;;;;;14.28;100.00;102059.84;5139884;27;20114;-40
2022/07/22 00:48:57;;;;;;;30.63;11.57;;;;;;;14.24;100.00;102059.69;5140484;27;20027;-41
2022/07/22 00:51:24;;;;;;;37.83;12.48;;;;;;;14.26;100.00;102058.91;5139974;27;20374;-41
2022/07/22 00:53:50;;;;;;;29.08;12.07;;;;;;;14.24;100.00;102060.59;5139566;27;20079;-40
2022/07/22 00:56:16;;;;;;;36.20;12.48;;;;;;;14.30;100.00;102057.31;5139991;27;20023;-42
2022/07/22 00:58:42;;;;;;;28.47;11.50;;;;;;;14.29;100.00;102053.84;5140489;27;20019;-41
2022/07/22 01:01:08;;;;;;;35.08;11.95;;;;;;;14.28;100.00;102053.75;5139525;27;20023;-41
2022/07/22 01:03:33;;;;;;;35.97;12.38;;;;;;;14.30;100.00;102055.56;5140228;27;20023;-43
2022/07/22 01:05:59;;;;;;;36.42;12.48;;;;;;;14.25;100.00;102051.94;5140223;27;20011;-42
2022/07/22 01:08:24;;;;;;;33.65;13.00;;;;;;;14.23;100.00;102045.84;5139287;27;20079;-41
2022/07/22 01:10:50;;;;;;;34.20;12.50;;;;;;;14.23;100.00;102047.53;5139929;27;20019;-43
2022/07/22 01:13:16;;;;;;;38.08;12.85;;;;;;;14.14;100.00;102038.63;5139627;27;20023;-41
2022/07/22 01:15:41;;;;;;;27.70;11.82;;;;;;;14.11;100.00;102048.00;5139432;27;20038;-41
2022/07/22 01:18:06;;;;;;;37.17;12.68;;;;;;;14.08;100.00;102043.59;5140063;27;20466;-42
2022/07/22 01:20:31;;;;;;;28.67;12.02;;;;;;;13.93;100.00;102040.47;5139865;27;20031;-41
2022/07/22 01:22:57;;;;;;;26.50;11.45;;;;;;;13.92;100.00;102046.53;5139591;27;20024;-40
2022/07/22 01:25:22;;;;;;;27.70;11.88;;;;;;;13.81;100.00;102038.34;5139874;27;20026;-40
2022/07/22 01:27:48;;;;;;;33.67;12.27;;;;;;;13.75;100.00;102049.38;5137848;27;20079;-43
2022/07/22 01:30:13;;;;;;;31.35;13.07;;;;;;;13.62;100.00;102041.97;5136136;27;20053;-41
2022/07/22 01:32:38;;;;;;;29.42;12.85;;;;;;;13.53;100.00;102033.88;5136814;27;20015;-40
2022/07/22 01:35:04;;;;;;;32.85;12.27;;;;;;;13.49;100.00;102038.06;5136274;27;20027;-41
2022/07/22 01:37:29;;;;;;;30.23;11.88;;;;;;;13.41;100.00;102042.09;5135915;27;20015;-40
2022/07/22 01:39:54;;;;;;;28.15;11.60;;;;;;;13.38;100.00;102040.25;5136549;27;20497;-42
2022/07/22 01:42:20;;;;;;;36.53;12.73;;;;;;;13.40;100.00;102037.72;5135455;27;20027;-43
2022/07/22 01:44:45;;;;;;;35.60;12.98;;;;;;;13.36;100.00;102035.81;5136669;27;20027;-41
2022/07/22 01:47:10;;;;;;;33.80;13.10;;;;;;;13.33;100.00;102039.19;5136370;27;20031;-41
2022/07/22 01:49:36;;;;;;;38.53;12.60;;;;;;;13.35;100.00;102042.72;5135356;27;20023;-41
2022/07/22 01:52:03;;;;;;;38.65;13.93;;;;;;;13.40;100.00;102049.00;5136327;27;20026;-41
2022/07/22 01:54:28;;;;;;;32.93;13.50;;;;;;;13.45;100.00;102042.28;5136066;27;20031;-41
2022/07/22 01:56:53;;;;;;;54.33;16.05;;;;;;;13.55;100.00;102040.88;5135406;27;20020;-45
2022/07/22 01:59:19;;;;;;;42.70;14.63;;;;;;;13.58;100.00;102043.59;5136053;27;20529;-41
2022/07/22 02:01:44;;;;;;;30.52;13.60;;;;;;;13.66;100.00;102043.88;5136313;27;20023;-41
2022/07/22 02:04:09;;;;;;;43.30;15.43;;;;;;;13.72;100.00;102045.78;5135365;27;20158;-41
2022/07/22 02:06:35;;;;;;;36.05;13.93;;;;;;;13.70;100.00;102045.75;5135954;27;20031;-41
2022/07/22 02:09:00;;;;;;;47.25;15.82;;;;;;;13.78;100.00;102039.13;5135858;27;20027;-40
2022/07/22 02:11:25;;;;;;;39.88;14.88;;;;;;;13.77;100.00;102041.66;5134810;27;20055;-41
2022/07/22 02:13:51;;;;;;;37.42;14.38;;;;;;;13.80;100.00;102039.16;5135982;27;20023;-42
2022/07/22 02:16:16;;;;;;;40.40;15.50;;;;;;;13.80;100.00;102040.06;5135754;27;20026;-42
2022/07/22 02:18:41;;;;;;;40.92;15.32;;;;;;;13.89;100.00;102043.81;5135049;27;20031;-41
2022/07/22 02:21:06;;;;;;;32.95;14.68;;;;;;;13.89;100.00;102046.38;5135809;27;20024;-41
2022/07/22 02:23:32;;;;;;;38.08;13.82;;;;;;;13.90;100.00;102038.66;5135377;27;20015;-42
2022/07/22 02:25:57;;;;;;;34.85;13.25;;;;;;;13.90;100.00;102043.84;5134970;27;20493;-41
2022/07/22 02:28:23;;;;;;;38.92;13.88;;;;;;;13.96;100.00;102040.59;5135619;27;20039;-40
2022/07/22 02:30:48;;;;;;;41.55;14.32;;;;;;;13.95;100.00;102031.94;5135533;27;20378;-41
2022/07/22 02:33:14;;;;;;;32.15;13.55;;;;;;;13.96;100.00;102038.88;5134768;27;20027;-41
2022/07/22 02:35:39;;;;;;;39.95;14.10;;;;;;;14.00;100.00;102035.56;5135487;27;20084;-42
2022/07/22 02:38:05;;;;;;;35.67;14.70;;;;;;;13.98;100.00;102036.34;5135178;27;20090;-41
2022/07/22 02:40:30;;;;;;;34.40;14.00;;;;;;;14.00;100.00;102039.88;5133427;27;20311;-41
2022/07/22 02:42:55;;;;;;;32.38;14.10;;;;;;;14.00;100.00;102034.69;5135498;27;20038;-41
2022/07/22 02:45:21;;;;;;;42.92;15.00;;;;;;;14.03;100.00;102032.19;5134920;27;20027;-42
2022/07/22 02:47:48;;;;;;;39.03;14.35;;;;;;;14.01;100.00;102031.28;5134815;27;20034;-43
2022/07/22 02:50:13;;;;;;;38.40;14.85;;;;;;;14.06;100.00;102029.72;5134945;27;20034;-41
2022/07/22 02:52:38;;;;;;;39.28;13.80;;;;;;;14.06;100.00;102032.31;5134328;27;20019;-40
2022/07/22 02:55:05;;;;;;;39.65;15.32;;;;;;;14.01;100.00;102028.69;5134710;27;20489;-41
2022/07/22 02:57:30;;;;;;;46.38;14.95;;;;;;;14.05;100.00;102027.97;5135088;27;20041;-41
2022/07/22 02:59:56;;;;;;;41.38;14.90;;;;;;;14.08;100.00;102028.06;5134449;27;20381;-41
2022/07/22 03:02:21;;;;;;;40.08;13.65;;;;;;;14.06;100.00;102034.91;5134720;27;20035;-41
2022/07/22 03:04:46;;;;;;;35.92;14.40;;;;;;;14.05;100.00;102027.97;5134953;27;20492;-41
2022/07/22 03:07:11;;;;;;;32.67;13.50;;;;;;;14.06;100.00;102018.47;5134092;27;20069;-41
2022/07/22 03:09:37;;;;;;;36.95;13.88;;;;;;;14.04;100.00;102021.00;5134817;27;20030;-41
2022/07/22 03:12:02;;;;;;;40.08;15.82;;;;;;;14.08;100.00;102022.88;5134543;27;20047;-42
2022/07/22 03:14:27;;;;;;;35.35;14.57;;;;;;;14.03;100.00;102019.22;5133842;27;20110;-41
2022/07/22 03:16:53;;;;;;;32.75;13.43;;;;;;;14.02;100.00;102020.09;5134576;27;20027;-41
2022/07/22 03:19:18;;;;;;;30.98;13.02;;;;;;;13.99;100.00;102017.38;5134381;27;20381;-42
2022/07/22 03:21:43;;;;;;;36.90;14.73;;;;;;;13.94;100.00;102018.94;5133765;27;20039;-42
2022/07/22 03:24:08;;;;;;;31.08;13.23;;;;;;;13.94;100.00;102017.22;5134483;27;20047;-40
2022/07/22 03:26:34;;;;;;;36.15;13.85;;;;;;;13.98;100.00;102015.59;5134077;27;20034;-41
2022/07/22 03:28:59;;;;;;;33.50;15.57;;;;;;;14.03;100.00;102010.59;5133982;27;20357;-42
2022/07/22 03:31:25;;;;;;;37.00;13.68;;;;;;;13.95;100.00;102010.31;5134304;27;20068;-41
2022/07/22 03:33:50;;;;;;;37.88;13.73;;;;;;;13.88;100.00;102017.00;5134137;27;20072;-41
2022/07/22 03:36:15;;;;;;;32.00;14.35;;;;;;;13.92;100.00;102008.50;5133498;27;20023;-41
2022/07/22 03:38:40;;;;;;;31.10;13.18;;;;;;;13.91;100.00;102013.66;5134174;27;20083;-41
2022/07/22 03:41:06;;;;;;;32.08;13.98;;;;;;;13.89;100.00;102005.81;5133772;27;20672;-42
2022/07/22 03:43:31;;;;;;;32.83;12.82;;;;;;;13.90;100.00;102009.28;5133590;27;20034;-41
2022/07/22 03:45:56;;;;;;;32.63;13.73;;;;;;;13.89;100.00;102010.09;5134056;27;20031;-41
2022/07/22 03:48:22;;;;;;;32.25;13.77;;;;;;;13.94;100.00;102013.75;5133614;27;20023;-43
2022/07/22 03:50:49;;;;;;;42.72;14.18;;;;;;;13.89;100.00;102015.28;5133109;27;20497;-46
2022/07/22 03:53:14;;;;;;;36.67;15.07;;;;;;;13.90;100.00;102022.25;5133826;27;20030;-44
2022/07/22 03:55:40;;;;;;;45.90;15.05;;;;;;;13.94;100.00;102024.09;5133639;27;20023;-40
2022/07/22 03:58:05;;;;;;;36.20;14.50;;;;;;;13.96;100.00;102023.34;5133657;27;20027;-41
2022/07/22 04:00:30;;;;;;;36.88;14.18;;;;;;;14.00;100.00;102024.31;5133872;27;21013;-46
2022/07/22 04:02:55;;;;;;;33.92;15.10;;;;;;;14.03;100.00;102023.56;5133786;27;20023;-41
2022/07/22 04:05:21;;;;;;;47.22;15.55;;;;;;;14.08;100.00;102022.88;5133020;27;20031;-41
2022/07/22 04:07:46;;;;;;;38.08;14.50;;;;;;;14.04;100.00;102026.19;5133833;27;20404;-42
2022/07/22 04:10:11;;;;;;;33.90;14.18;;;;;;;14.02;100.00;102027.88;5132627;27;20015;-42
2022/07/22 04:12:39;;;;;;;38.92;15.00;;;;;;;14.06;100.00;102034.91;5133587;27;20047;-42
2022/07/22 04:15:07;;;;;;;42.10;13.75;;;;;;;14.12;100.00;102031.63;5133582;28;20485;-43
2022/07/22 04:17:32;;;;;;;38.63;15.52;;;;;;;14.09;100.00;102024.63;5132959;28;20059;-46
2022/07/22 04:19:59;;;;;;;35.70;13.80;;;;;;;14.11;100.00;102025.59;5133580;28;20070;-41
2022/07/22 04:22:24;;;;;;;29.70;14.18;;;;;;;14.12;100.00;102035.09;5133527;28;20072;-41
2022/07/22 04:24:49;;;;;;;34.88;15.15;;;;;;;14.18;100.00;102033.53;5132844;28;20027;-41
2022/07/22 04:27:15;;;;;;;38.53;14.35;;;;;;;14.20;100.00;102031.91;5133622;28;20015;-42
2022/07/22 04:29:40;;;;;;;33.22;14.32;;;;;;;14.20;100.00;102026.72;5133508;28;20019;-43
2022/07/22 04:32:05;;;;;;;43.17;15.13;;;;;;;14.27;100.00;102028.69;5132940;28;20039;-41
2022/07/22 04:34:31;;;;;;;42.30;15.48;;;;;;;14.28;100.00;102025.25;5133318;28;20118;-41
2022/07/22 04:36:56;;;;;;;40.63;14.88;;;;;;;14.36;100.00;102023.81;5133387;28;20493;-41
2022/07/22 04:39:21;;;;;;;49.25;14.52;;;;;;;14.36;100.00;102023.81;5132626;28;20054;-42
2022/07/22 04:41:47;;;;;;;42.35;14.32;;;;;;;14.36;100.00;102025.50;5133713;28;20023;-43
2022/07/22 04:44:12;;;;;;;32.33;14.00;;;;;;;14.41;100.00;102027.44;5132989;28;20053;-42
2022/07/22 04:46:37;;;;;;;45.58;15.20;;;;;;;14.45;100.00;102018.91;5133093;28;20023;-41
2022/07/22 04:49:03;;;;;;;41.08;14.77;;;;;;;14.47;100.00;102014.66;5133431;28;20022;-41
2022/07/22 04:51:28;;;;;;;39.95;14.60;;;;;;;14.51;100.00;102023.41;5132980;28;20027;-42
2022/07/22 04:53:54;;;;;;;34.72;14.63;;;;;;;14.57;100.00;102014.94;5132760;28;20019;-40
2022/07/22 04:56:20;;;;;;;34.50;14.82;;;;;;;14.58;100.00;102014.13;5133331;28;20098;-43
2022/07/22 04:58:45;;;;;;;45.88;14.20;;;;;;;14.60;100.00;102007.25;5133034;28;20118;-42
2022/07/22 05:01:10;;;;;;;34.45;13.27;;;;;;;14.60;100.00;102015.03;5132767;28;20055;-41
2022/07/22 05:03:40;;;;;;;31.92;12.98;;;;;;;14.62;100.00;102006.47;5134779;27;20059;-41
2022/07/22 05:06:05;;;;;;;38.03;14.10;;;;;;;14.65;100.00;102010.91;5136930;27;20401;-43
2022/07/22 05:08:30;;;;;;;37.25;13.57;;;;;;;14.70;100.00;102006.75;5136430;27;20541;-41
2022/07/22 05:10:55;;;;;;;40.33;13.63;;;;;;;14.78;100.00;102013.06;5136817;27;20096;-41
2022/07/22 05:13:21;;;;;;;39.72;14.05;;;;;;;14.82;100.00;102008.81;5136133;27;20066;-41
2022/07/22 05:15:46;;;;;;;29.33;13.13;;;;;;;14.89;100.00;102009.94;5137108;27;20035;-44
2022/07/22 05:18:11;;;;;;;33.90;14.35;;;;;;;15.03;100.00;102007.72;5136790;27;20355;-41
2022/07/22 05:20:37;;;;;;;32.15;14.07;;;;;;;15.06;100.00;102006.09;5136149;27;20020;-43
2022/07/22 05:23:02;;;;;;;33.90;13.88;;;;;;;15.07;100.00;102010.47;5136649;27;20094;-41
2022/07/22 05:25:28;;;;;;;33.53;13.95;;;;;;;15.03;100.00;102003.44;5136579;27;20512;-41
2022/07/22 05:27:54;;;;;;;30.73;14.05;;;;;;;15.00;100.00;102003.31;5136133;27;20031;-44
2022/07/22 05:30:20;;;;;;;29.83;13.40;;;;;;;15.02;100.00;102012.03;5136687;27;20031;-41
2022/07/22 05:32:45;;;;;;;34.75;13.48;;;;;;;15.11;100.00;102017.50;5136773;27;20420;-43
2022/07/22 05:35:11;;;;;;;32.13;13.20;;;;;;;15.10;100.00;102010.53;5135724;27;20073;-44
2022/07/22 05:37:36;;;;;;;30.63;13.05;;;;;;;15.14;100.00;102008.94;5136571;27;20038;-42
2022/07/22 05:40:02;;;;;;;39.72;14.35;;;;;;;15.10;100.00;102007.94;5136362;27;20076;-44
2022/07/22 05:42:28;;;;;;;29.55;12.90;;;;;;;15.07;100.00;102015.66;5135707;27;20031;-41
2022/07/22 05:44:53;;;;;;;36.88;13.30;;;;;;;14.99;100.00;102011.97;5136565;27;20031;-41
2022/07/22 05:47:18;;;;;;;32.28;12.27;;;;;;;15.00;100.00;102018.88;5136046;27;20027;-42
2022/07/22 05:49:43;;;;;;;29.02;13.60;;;;;;;15.01;100.00;102015.47;5135833;27;20034;-42
2022/07/22 05:52:09;;;;;;;25.38;13.10;;;;;;;14.98;100.00;102021.44;5136166;27;20351;-42
2022/07/22 05:54:34;;;;;;;33.47;13.52;;;;;;;15.07;100.00;102023.44;5135729;27;20080;-45
2022/07/22 05:56:59;;;;;;;31.30;13.93;;;;;;;15.17;100.00;102026.31;5135571;27;20058;-41
2022/07/22 05:59:25;;;;;;;37.88;14.32;;;;;;;15.20;100.00;102022.09;5136307;27;20504;-42
2022/07/22 06:01:50;;;;;;;34.03;13.00;;;;;;;15.25;100.00;102019.66;5135946;27;20023;-42
2022/07/22 06:04:15;;;;;;;30.98;13.98;;;;;;;15.43;100.00;102011.50;5135320;27;20027;-41
2022/07/22 06:06:40;;;;;;;34.83;14.10;;;;;;;15.47;100.00;102009.00;5136065;27;20080;-42
2022/07/22 06:09:06;;;;;;;38.92;14.52;;;;;;;15.57;100.00;102009.25;5135743;27;20062;-43
2022/07/22 06:11:31;;;;;;;33.33;13.85;;;;;;;15.72;100.00;102011.41;5134450;27;20039;-41
2022/07/22 06:13:56;;;;;;;38.53;13.07;;;;;;;15.89;100.00;102014.50;5135486;27;20074;-43
2022/07/22 06:16:22;;;;;;;36.50;13.68;;;;;;;15.99;100.00;102021.69;5135487;27;20020;-46
2022/07/22 06:18:47;;;;;;;24.25;13.30;;;;;;;16.20;100.00;102020.47;5135299;27;20056;-42
2022/07/22 06:21:12;;;;;;;28.58;12.20;;;;;;;16.35;100.00;102020.88;5135416;27;20045;-43
2022/07/22 06:23:37;;;;;;;30.83;11.70;;;;;;;16.44;99.13;102023.69;5135193;27;20060;-43
2022/07/22 06:26:03;;;;;;;27.20;11.80;;;;;;;16.65;99.59;102027.63;5135527;27;20027;-41
2022/07/22 06:28:28;;;;;;;18.58;10.65;;;;;;;16.69;97.67;102024.25;5135641;27;20023;-41
2022/07/22 06:30:53;;;;;;;33.40;11.63;;;;;;;16.67;95.81;102023.38;5134928;27;20488;-42
2022/07/22 06:33:19;;;;;;;27.98;10.90;;;;;;;16.78;94.83;102018.38;5135295;27;20023;-42
2022/07/22 06:35:44;;;;;;;20.60;8.60;;;;;;;16.95;92.34;102021.41;5135401;27;20371;-46
2022/07/22 06:38:09;;;;;;;22.33;9.57;;;;;;;16.96;92.35;102010.13;5134440;27;20023;-42
2022/07/22 06:40:35;;;;;;;20.95;9.30;;;;;;;17.02;92.07;102012.03;5135378;27;20026;-42
2022/07/22 06:43:00;;;;;;;18.67;8.23;;;;;;;17.08;92.71;102015.63;5134861;27;20023;-42
2022/07/22 06:45:26;;;;;;;20.13;7.13;;;;;;;17.07;90.39;102016.47;5134572;27;20481;-43
2022/07/22 06:47:51;;;;;;;22.85;7.47;;;;;;;17.03;89.58;102014.66;5135280;27;20088;-42
2022/07/22 06:50:17;;;;;;;17.55;6.97;;;;;;;17.16;90.06;102012.28;5134581;27;20023;-43
2022/07/22 06:52:43;;;;;;;16.05;7.22;;;;;;;17.17;88.70;102021.88;5134454;27;20023;-46
2022/07/22 06:55:09;;;;;;;16.52;6.72;;;;;;;17.26;87.56;102016.84;5135024;27;20034;-43
2022/07/22 06:57:35;;;;;;;14.48;6.38;;;;;;;17.15;86.81;102016.63;5134746;27;20031;-41
2022/07/22 07:00:01;;;;;;;15.73;6.75;;;;;;;17.23;85.34;102015.06;5134292;27;20019;-41
2022/07/22 07:02:26;;;;;;;19.45;7.05;;;;;;;17.27;86.01;102021.22;5134849;27;20019;-41
2022/07/22 07:04:51;;;;;;;19.90;7.05;;;;;;;17.58;86.82;102024.44;5134540;27;20035;-44
2022/07/22 07:07:17;;;;;;;20.33;7.50;;;;;;;17.75;87.02;102025.66;5133948;27;20371;-42
2022/07/22 07:09:42;;;;;;;18.45;6.70;;;;;;;17.87;84.24;102027.59;5134862;27;20035;-44
2022/07/22 07:12:07;;;;;;;17.70;6.57;;;;;;;17.80;81.93;102022.25;5134310;27;20119;-43
2022/07/22 07:14:33;;;;;;;19.45;6.65;;;;;;;17.66;82.45;102012.41;5133918;27;20381;-44
2022/07/22 07:16:58;;;;;;;18.35;5.50;;;;;;;17.58;82.31;102008.78;5134722;27;20031;-45
2022/07/22 07:19:23;;;;;;;15.40;5.60;;;;;;;17.54;83.04;102013.06;5134201;27;20110;-42
2022/07/22 07:21:48;;;;;;;16.73;5.93;;;;;;;17.48;82.41;102004.25;5134029;27;20031;-45
2022/07/22 07:24:14;;;;;;;17.35;5.93;;;;;;;17.46;84.31;102005.97;5134458;27;20032;-42
2022/07/22 07:26:39;;;;;;;18.38;6.43;;;;;;;17.48;84.56;102005.16;5133799;27;20034;-44
2022/07/22 07:29:04;;;;;;;21.35;6.93;;;;;;;17.51;83.44;102001.72;5133901;27;20023;-43
2022/07/22 07:31:30;;;;;;;14.20;5.90;;;;;;;17.62;85.10;102008.00;5134270;27;20020;-45
2022/07/22 07:33:56;;;;;;;14.13;6.10;;;;;;;17.57;81.59;101999.22;5134100;27;20027;-44
2022/07/22 07:36:22;;;;;;;15.93;5.63;;;;;;;17.70;81.87;101996.00;5133522;27;20023;-43
2022/07/22 07:38:47;;;;;;;17.17;6.72;;;;;;;17.69;80.23;101999.44;5134547;27;20034;-45
2022/07/22 07:41:13;;;;;;;18.30;6.10;;;;;;;17.92;83.65;102002.47;5133289;27;20016;-41
2022/07/22 07:43:38;;;;;;;16.13;4.57;;;;;;;17.89;80.68;102004.16;5134337;27;20034;-41
2022/07/22 07:46:03;;;;;;;13.70;5.07;;;;;;;18.16;80.21;102014.22;5134188;27;20026;-43
2022/07/22 07:48:29;;;;;;;11.00;4.50;;;;;;;18.01;76.16;102007.03;5133267;27;20382;-46
2022/07/22 07:50:54;;;;;;;13.45;4.70;;;;;;;18.01;75.29;102007.03;5134050;27;20371;-49
2022/07/22 07:53:19;;;;;;;15.05;4.72;;;;;;;18.05;77.74;101997.50;5133726;27;20485;-44
2022/07/22 07:55:44;;;;;;;10.40;3.10;;;;;;;17.97;75.48;101997.34;5133496;27;20054;-42
2022/07/22 07:58:10;;;;;;;8.77;2.83;;;;;;;18.00;74.75;102001.75;5133878;27;20023;-44
2022/07/22 08:00:36;;;;;;;5.18;2.58;;;;;;;18.00;72.92;102005.25;5133757;27;20015;-43
2022/07/22 08:03:03;;;;;;;10.25;3.28;;;;;;;18.08;74.51;102011.47;5133251;27;20466;-42
2022/07/22 08:05:29;;;;;;;12.27;3.53;;;;;;;18.19;73.74;102011.66;5133688;27;20035;-42
2022/07/22 08:07:54;;;;;;;9.27;3.47;;;;;;;18.27;71.61;102003.97;5133872;27;20023;-42
2022/07/22 08:10:21;;;;;;;10.63;3.00;;;;;;;18.53;72.00;102006.97;5133042;27;20033;-45
2022/07/22 08:12:46;;;;;;;6.70;3.08;;;;;;;18.76;73.20;101999.47;5133686;27;20085;-43
2022/07/22 08:15:12;;;;;;;8.07;3.00;;;;;;;18.85;70.06;102001.34;5133243;27;20067;-44
2022/07/22 08:17:37;;;;;;;11.13;3.72;;;;;;;18.95;69.12;102004.09;5133320;28;20046;-44
2022/07/22 08:20:04;;;;;;;9.85;3.50;;;;;;;19.41;69.45;101999.44;5133523;28;20035;-45
2022/07/22 08:22:30;;;;;;;11.90;3.05;;;;;;;19.51;66.79;101995.19;5133575;28;20047;-45
2022/07/22 08:24:55;;;;;;;9.73;3.03;;;;;;;19.90;66.04;101991.25;5133417;28;20154;-44
2022/07/22 08:27:21;;;;;;;6.13;2.83;;;;;;;19.77;61.90;101994.56;5133483;28;20027;-46
2022/07/22 08:29:46;;;;;;;8.70;2.50;;;;;;;19.74;63.48;101996.31;5133471;28;20035;-44
2022/07/22 08:32:11;;;;;;;10.73;2.92;;;;;;;20.29;62.47;101997.69;5132814;28;20031;-42
2022/07/22 08:34:37;;;;;;;10.15;3.17;;;;;;;19.80;64.47;101998.09;5133532;28;20109;-45
2022/07/22 08:37:02;;;;;;;7.65;3.10;;;;;;;19.99;63.39;101999.19;5133931;27;20027;-44
2022/07/22 08:39:27;;;;;;;8.35;2.97;;;;;;;19.94;63.54;102000.88;5136996;27;20023;-48
2022/07/22 08:41:53;;;;;;;7.47;2.58;;;;;;;19.77;64.66;101991.97;5137719;27;20030;-46
2022/07/22 08:44:19;;;;;;;7.18;2.95;;;;;;;19.88;66.18;101980.78;5136811;27;20026;-43
2022/07/22 08:46:45;;;;;;;9.80;3.33;;;;;;;19.78;64.11;101986.78;5137489;27;20027;-46
2022/07/22 08:49:14;;;;;;;13.27;2.97;;;;;;;19.47;63.15;101982.94;5137393;27;20060;-42
2022/07/22 08:51:39;;;;;;;9.13;3.03;;;;;;;19.37;64.71;101982.84;5137131;27;20031;-43
2022/07/22 08:54:04;;;;;;;9.25;3.03;;;;;;;19.60;63.07;101974.38;5137420;27;20016;-44
2022/07/22 08:56:30;;;;;;;11.73;3.75;;;;;;;19.58;61.61;101986.56;5137156;27;20019;-41
2022/07/22 08:58:55;;;;;;;10.90;2.90;;;;;;;19.52;62.70;101981.25;5137035;27;20054;-43
2022/07/22 09:01:20;;;;;;;9.45;2.97;;;;;;;19.53;63.25;101985.63;5136963;27;20027;-41
2022/07/22 09:03:51;;;;;;;8.88;3.28;;;;;;;19.63;65.98;101984.88;5137127;27;20026;-42
2022/07/22 09:06:18;;;;;;;9.32;3.30;;;;;;;19.71;63.50;101987.56;5136520;27;20023;-45
2022/07/22 09:08:58;;;;;;;9.40;3.20;;;;;;;19.77;64.31;101982.41;5137358;27;20080;-43
2022/07/22 09:11:27;;;;;;;8.20;3.15;;;;;;;19.60;63.17;101994.41;5136657;27;20053;-44
2022/07/22 09:13:52;;;;;;;8.73;2.80;;;;;;;19.53;65.90;101993.47;5136595;27;20023;-44
2022/07/22 09:16:44;;;;;;;9.63;3.05;;;;;;;20.00;64.61;101990.50;5136622;27;20037;-42
2022/07/22 09:19:10;;;;;;;7.88;3.17;;;;;;;19.95;60.54;101981.72;5136824;27;20026;-43
2022/07/22 09:21:38;;;;;;;7.75;3.08;;;;;;;20.16;59.85;101985.38;5136325;27;20026;-43
2022/07/22 09:24:05;;;;;;;11.32;3.75;;;;;;;20.26;58.43;101984.59;5136801;27;20023;-43
2022/07/22 09:26:36;;;;;;;7.65;3.42;;;;;;;20.47;59.04;101982.97;5136130;27;20478;-42
2022/07/22 09:29:03;;;;;;;6.95;3.35;;;;;;;20.33;58.11;101977.66;5136631;27;20486;-45
2022/07/22 09:31:31;;;;;;;9.02;3.05;;;;;;;20.18;58.66;101978.41;5136322;27;20428;-43
2022/07/22 09:33:57;;;;;;;8.35;3.08;;;;;;;20.47;60.54;101980.38;5136264;27;20042;-42
2022/07/22 09:36:23;;;;;;;11.52;3.30;;;;;;;21.02;60.48;101978.06;5136527;27;20027;-47
2022/07/22 09:38:48;;;;;;;9.18;2.67;;;;;;;21.29;60.68;101973.81;5136422;27;20025;-41
2022/07/22 09:41:14;;;;;;;6.38;2.60;;;;;;;21.37;59.52;101974.69;5135836;27;20547;-42
2022/07/22 09:43:39;;;;;;;11.00;3.10;;;;;;;21.13;58.07;101966.75;5136576;27;20058;-46
2022/07/22 09:46:05;;;;;;;7.53;3.00;;;;;;;20.90;60.17;101957.03;5136420;27;20482;-44
2022/07/22 09:48:31;;;;;;;9.50;3.55;;;;;;;20.78;60.67;101954.38;5135264;27;20069;-46
2022/07/22 09:50:57;;;;;;;8.75;3.45;;;;;;;20.98;57.46;101957.97;5136238;27;20024;-44
2022/07/22 09:53:26;;;;;;;9.93;3.15;;;;;;;21.19;61.27;101961.53;5135855;27;20034;-46
2022/07/22 09:55:52;;;;;;;7.28;2.83;;;;;;;21.00;60.71;101961.44;5135641;27;20035;-45
2022/07/22 09:58:17;;;;;;;7.63;2.92;;;;;;;20.68;59.79;101958.66;5135938;27;20031;-45
2022/07/22 10:00:43;;;;;;;7.32;3.13;;;;;;;20.49;60.75;101957.66;5136092;27;20023;-42
2022/07/22 10:03:13;;;;;;;10.10;3.40;;;;;;;20.51;59.96;101962.03;5135658;27;20068;-44
2022/07/22 10:05:42;;;;;;;7.00;2.97;;;;;;;20.85;61.90;101964.91;5136281;27;20023;-43
2022/07/22 10:08:08;;;;;;;8.43;2.95;;;;;;;20.92;60.11;101970.19;5135648;27;20482;-42
2022/07/22 10:10:35;;;;;;;9.23;3.30;;;;;;;20.83;58.96;101968.38;5135168;27;20034;-42
2022/07/22 10:13:03;;;;;;;7.38;3.33;;;;;;;21.20;58.98;101968.50;5135688;27;20047;-42
2022/07/22 10:15:29;;;;;;;10.65;3.33;;;;;;;22.43;54.41;101972.19;5135623;27;20058;-42
2022/07/22 10:17:58;;;;;;;9.57;3.75;;;;;;;22.43;52.91;101977.44;5135461;27;20027;-43
2022/07/22 10:20:27;;;;;;;8.05;3.25;;;;;;;22.71;54.10;101969.47;5135728;27;20030;-43
2022/07/22 10:23:01;;;;;;;9.50;3.67;;;;;;;23.90;47.92;101959.22;5135059;27;20038;-42
2022/07/22 10:25:32;;;;;;;11.77;3.55;;;;;;;23.81;48.36;101956.63;5135808;27;20047;-43
2022/07/22 10:27:58;;;;;;;7.03;2.92;;;;;;;24.31;48.10;101959.69;5135508;27;20135;-42
2022/07/22 10:30:33;;;;;;;12.18;3.78;;;;;;;25.45;49.46;101973.31;5135028;27;20019;-43
2022/07/22 10:33:13;;;;;;;10.05;3.22;;;;;;;27.06;46.86;101966.06;5135620;27;20098;-43
2022/07/22 10:35:54;;;;;;;7.72;3.20;;;;;;;28.16;41.67;101966.13;5135166;27;20437;-44
2022/07/22 10:38:21;;;;;;;9.00;3.28;;;;;;;28.98;38.04;101971.78;5134677;27;20508;-48
2022/07/22 10:40:56;;;;;;;9.48;3.58;;;;;;;28.46;37.80;101971.50;5135563;27;20094;-44
2022/07/22 10:43:26;;;;;;;7.38;3.40;;;;;;;28.22;38.79;101971.22;5134903;27;20011;-44
2022/07/22 10:46:00;;;;;;;9.63;3.40;;;;;;;27.24;40.96;101969.19;5134802;27;20034;-45
2022/07/22 10:48:37;;;;;;;11.38;4.00;;;;;;;26.47;42.99;101969.00;5135243;27;20031;-43
2022/07/22 10:51:06;;;;;;;7.97;3.95;;;;;;;25.80;40.70;101958.69;5134683;27;20083;-47
2022/07/22 10:53:45;;;;;;;7.05;3.53;;;;;;;25.59;46.44;101954.63;5134908;27;20467;-46
2022/07/22 10:56:16;;;;;;;12.82;4.18;;;;;;;24.80;44.27;101958.31;5134737;27;20027;-49
2022/07/22 10:58:44;;;;;;;7.20;3.78;;;;;;;24.58;43.97;101955.94;5134933;27;20038;-46
2022/07/22 11:01:13;;;;;;;11.25;4.30;;;;;;;24.26;46.40;101951.88;5134114;27;20030;-44
2022/07/22 11:03:42;;;;;;;6.28;3.47;;;;;;;23.88;46.66;101942.50;5134844;27;20027;-45